Time;durP1;ratioP1;P1;durP2;ratioP2;P2;SDS_P1;SDS_P2;PMS_P1;PMS_P2;Temp;Humidity;BMP_temperature;BMP_pressure;BME280_temperature;BME280_humidity;BME280_pressure;Samples;Min_cycle;Max_cycle;Signal;HPM_P1;HPM_P2
2024/01/06 00:00:17;;;;;;;15.40;10.05;;;3.50;99.90;;;;;;4979920;28;20245;-71
2024/01/06 00:02:45;;;;;;;11.32;9.20;;;3.50;99.90;;;;;;4980393;28;20221;-74
2024/01/06 00:05:12;;;;;;;14.35;10.85;;;3.50;99.90;;;;;;4978303;28;20264;-73
2024/01/06 00:07:39;;;;;;;12.57;9.05;;;3.50;99.90;;;;;;4991703;28;20283;-73
2024/01/06 00:10:07;;;;;;;10.18;7.70;;;3.40;99.90;;;;;;4982163;28;20632;-71
2024/01/06 00:12:34;;;;;;;11.07;8.82;;;3.50;99.90;;;;;;4990229;28;20265;-73
2024/01/06 00:15:01;;;;;;;11.43;7.82;;;3.40;99.90;;;;;;4991082;28;20249;-71
2024/01/06 00:17:28;;;;;;;10.90;8.23;;;3.40;99.90;;;;;;4989411;28;20253;-72
2024/01/06 00:19:56;;;;;;;12.77;9.73;;;3.40;99.90;;;;;;4980938;28;20241;-70
2024/01/06 00:22:23;;;;;;;11.50;8.65;;;3.40;99.90;;;;;;4979589;28;20280;-70
2024/01/06 00:24:50;;;;;;;10.85;7.60;;;3.40;99.90;;;;;;4983108;28;20265;-69
2024/01/06 00:27:17;;;;;;;11.98;8.30;;;3.30;99.90;;;;;;4981939;28;20657;-73
2024/01/06 00:29:44;;;;;;;11.52;8.48;;;3.40;99.90;;;;;;4984376;28;20699;-71
2024/01/06 00:32:11;;;;;;;9.95;7.95;;;3.40;99.90;;;;;;4983919;28;20316;-72
2024/01/06 00:34:38;;;;;;;9.88;7.00;;;3.30;99.90;;;;;;4987472;28;20250;-71
2024/01/06 00:37:07;;;;;;;10.55;8.55;;;3.40;99.90;;;;;;4984111;28;20237;-71
2024/01/06 00:39:34;;;;;;;13.45;9.20;;;3.30;99.90;;;;;;4985568;28;20724;-71
2024/01/06 00:42:01;;;;;;;10.48;8.18;;;3.40;99.90;;;;;;4978824;28;20680;-72
2024/01/06 00:44:28;;;;;;;9.30;8.35;;;3.40;99.90;;;;;;4979999;28;20257;-70
2024/01/06 00:46:55;;;;;;;9.90;8.80;;;3.40;99.90;;;;;;4977862;28;20202;-71
2024/01/06 00:49:22;;;;;;;10.02;7.70;;;3.40;99.90;;;;;;4982489;28;20653;-71
2024/01/06 00:51:49;;;;;;;10.73;6.80;;;3.40;99.90;;;;;;4991127;28;20684;-71
2024/01/06 00:54:17;;;;;;;12.43;8.85;;;3.30;99.90;;;;;;4981058;28;20257;-72
2024/01/06 00:56:44;;;;;;;14.88;9.00;;;3.30;99.90;;;;;;4986395;28;20261;-71
2024/01/06 00:59:11;;;;;;;9.15;7.82;;;3.30;99.90;;;;;;4983414;28;20309;-71
2024/01/06 01:01:38;;;;;;;15.88;9.32;;;3.30;99.90;;;;;;4988757;28;20266;-70
2024/01/06 01:04:05;;;;;;;10.73;8.35;;;3.40;99.90;;;;;;4990456;28;20241;-72
2024/01/06 01:06:32;;;;;;;8.82;7.05;;;3.40;99.90;;;;;;4983311;28;20203;-71
2024/01/06 01:08:59;;;;;;;9.63;6.97;;;3.50;99.90;;;;;;4984484;28;20687;-73
2024/01/06 01:11:28;;;;;;;11.20;8.13;;;3.40;99.90;;;;;;4982202;28;20281;-73
2024/01/06 01:13:55;;;;;;;8.48;6.70;;;3.40;99.90;;;;;;4982128;28;20231;-72
2024/01/06 01:16:22;;;;;;;10.95;8.15;;;3.50;99.90;;;;;;4995012;28;20210;-72
2024/01/06 01:18:48;;;;;;;8.95;7.28;;;3.50;99.90;;;;;;4986096;28;20227;-71
2024/01/06 01:21:15;;;;;;;10.73;6.93;;;3.50;99.90;;;;;;4983630;28;20212;-71
2024/01/06 01:23:43;;;;;;;13.75;8.50;;;3.50;99.90;;;;;;4995835;28;20202;-71
2024/01/06 01:26:10;;;;;;;10.50;7.28;;;3.40;99.90;;;;;;4992459;28;20256;-72
2024/01/06 01:28:38;;;;;;;11.32;7.85;;;3.40;99.90;;;;;;4994904;28;20229;-72
2024/01/06 01:31:05;;;;;;;10.77;6.57;;;3.40;99.90;;;;;;4994492;28;20206;-71
2024/01/06 01:33:32;;;;;;;10.00;6.97;;;3.30;99.90;;;;;;4989293;28;20276;-70
2024/01/06 01:35:59;;;;;;;9.10;7.15;;;3.40;99.90;;;;;;4992110;28;20697;-70
2024/01/06 01:38:26;;;;;;;11.40;8.25;;;3.30;99.90;;;;;;4982539;28;20250;-72
2024/01/06 01:40:53;;;;;;;11.27;7.90;;;3.40;99.90;;;;;;4991908;28;20246;-72
2024/01/06 01:43:21;;;;;;;9.07;6.43;;;3.40;99.90;;;;;;4998230;28;20261;-72
2024/01/06 01:45:51;;;;;;;9.77;7.10;;;3.40;99.90;;;;;;4994923;28;20545;-70
2024/01/06 01:48:19;;;;;;;8.88;6.30;;;3.40;99.90;;;;;;4983179;28;20246;-71
2024/01/06 01:50:48;;;;;;;9.30;7.32;;;3.20;99.90;;;;;;4986267;28;20278;-73
2024/01/06 01:53:16;;;;;;;7.35;6.65;;;3.30;99.90;;;;;;4984379;28;20225;-74
2024/01/06 01:55:44;;;;;;;9.18;7.18;;;3.30;99.90;;;;;;4994917;28;20233;-72
2024/01/06 01:58:13;;;;;;;8.40;6.80;;;3.30;99.90;;;;;;4994147;28;20378;-72
2024/01/06 02:00:40;;;;;;;10.02;7.40;;;3.40;99.90;;;;;;4988425;28;20334;-72
2024/01/06 02:03:10;;;;;;;9.18;7.30;;;3.30;99.90;;;;;;4991965;28;20272;-72
2024/01/06 02:05:40;;;;;;;9.23;7.00;;;3.50;99.90;;;;;;4990334;28;20256;-73
2024/01/06 02:08:07;;;;;;;9.55;7.50;;;3.40;99.90;;;;;;4990348;28;20547;-73
2024/01/06 02:10:34;;;;;;;9.75;7.13;;;3.40;99.90;;;;;;4987390;28;20237;-71
2024/01/06 02:13:10;;;;;;;11.18;7.43;;;3.30;99.90;;;;;;4992306;28;20238;-71
2024/01/06 02:15:37;;;;;;;11.77;7.32;;;3.30;99.90;;;;;;4991967;28;20257;-74
2024/01/06 02:18:04;;;;;;;9.50;6.43;;;3.30;99.90;;;;;;4986781;28;20604;-72
2024/01/06 02:20:33;;;;;;;9.55;7.28;;;3.30;99.90;;;;;;4988824;28;20210;-70
2024/01/06 02:23:01;;;;;;;7.53;5.65;;;3.30;99.90;;;;;;4990088;28;20226;-72
2024/01/06 02:25:29;;;;;;;9.73;7.53;;;3.30;99.90;;;;;;4993991;28;20210;-73
2024/01/06 02:27:57;;;;;;;8.20;6.00;;;3.20;99.90;;;;;;4989263;28;20198;-70
2024/01/06 02:30:23;;;;;;;9.88;7.60;;;3.20;99.90;;;;;;4989245;28;20646;-71
2024/01/06 02:32:50;;;;;;;8.93;6.68;;;3.20;99.90;;;;;;4992733;28;20226;-72
2024/01/06 02:35:18;;;;;;;9.82;6.72;;;3.20;99.90;;;;;;4985510;28;20728;-73
2024/01/06 02:37:44;;;;;;;10.48;8.52;;;3.30;99.90;;;;;;4981183;28;20211;-73
2024/01/06 02:40:14;;;;;;;8.75;6.05;;;3.30;99.90;;;;;;4983484;28;20643;-70
2024/01/06 02:42:41;;;;;;;11.68;6.68;;;3.30;99.90;;;;;;4980170;28;20226;-74
2024/01/06 02:45:09;;;;;;;8.45;6.22;;;3.40;99.90;;;;;;4984445;28;20250;-74
2024/01/06 02:47:36;;;;;;;7.75;6.18;;;3.40;99.90;;;;;;4985422;28;20293;-73
2024/01/06 02:50:04;;;;;;;8.63;7.13;;;3.40;99.90;;;;;;4981187;28;20238;-73
2024/01/06 02:52:31;;;;;;;8.80;6.95;;;3.30;99.90;;;;;;4984644;28;20289;-72
2024/01/06 02:54:58;;;;;;;8.38;6.80;;;3.30;99.90;;;;;;4986097;28;20248;-72
2024/01/06 02:57:26;;;;;;;8.88;7.50;;;3.30;99.90;;;;;;4993859;28;20269;-72
2024/01/06 02:59:53;;;;;;;9.65;6.68;;;3.30;99.90;;;;;;4990775;28;20304;-72
2024/01/06 03:02:20;;;;;;;10.15;7.03;;;3.20;99.90;;;;;;4984063;28;20725;-72
2024/01/06 03:04:47;;;;;;;8.52;7.53;;;3.30;99.90;;;;;;4987792;28;20601;-71
2024/01/06 03:07:14;;;;;;;8.23;6.68;;;3.30;99.90;;;;;;4990140;28;20661;-73
2024/01/06 03:09:41;;;;;;;7.40;6.25;;;3.20;99.90;;;;;;4979646;28;20245;-72
2024/01/06 03:12:08;;;;;;;8.23;7.43;;;3.20;99.90;;;;;;4986243;28;20243;-73
2024/01/06 03:14:37;;;;;;;7.72;6.93;;;3.10;99.90;;;;;;4977909;28;20207;-73
2024/01/06 03:17:04;;;;;;;11.70;8.23;;;3.10;99.90;;;;;;4985316;28;20272;-74
2024/01/06 03:19:31;;;;;;;9.02;6.82;;;3.00;99.90;;;;;;4975253;28;20568;-69
2024/01/06 03:21:59;;;;;;;9.32;7.50;;;3.00;99.90;;;;;;4982114;28;20269;-73
2024/01/06 03:24:28;;;;;;;7.80;6.47;;;3.00;99.90;;;;;;4976256;28;20199;-73
2024/01/06 03:26:55;;;;;;;9.40;7.57;;;3.00;99.90;;;;;;4980498;28;20657;-71
2024/01/06 03:29:22;;;;;;;10.73;7.45;;;3.00;99.90;;;;;;4978624;28;20329;-71
2024/01/06 03:31:50;;;;;;;6.47;5.47;;;2.90;99.90;;;;;;4982743;28;20371;-72
2024/01/06 03:34:17;;;;;;;8.18;7.38;;;3.00;99.90;;;;;;4984802;28;20221;-70
2024/01/06 03:36:44;;;;;;;8.55;7.13;;;3.00;99.90;;;;;;4981364;28;20202;-71
2024/01/06 03:39:13;;;;;;;8.25;6.60;;;3.00;99.90;;;;;;4976278;28;20227;-70
2024/01/06 03:41:40;;;;;;;10.38;7.70;;;3.00;99.90;;;;;;4980171;28;20295;-71
2024/01/06 03:44:07;;;;;;;10.15;7.97;;;3.00;99.90;;;;;;4984672;28;20618;-71
2024/01/06 03:49:03;;;;;;;8.30;7.00;;;2.90;99.90;;;;;;4974694;28;20219;-70
2024/01/06 03:51:30;;;;;;;12.82;7.35;;;2.90;99.90;;;;;;4971339;28;20232;-71
2024/01/06 03:53:57;;;;;;;9.23;7.93;;;2.90;99.90;;;;;;4969622;28;20202;-73
2024/01/06 03:56:24;;;;;;;7.68;6.40;;;2.90;99.90;;;;;;4965714;28;20665;-72
2024/01/06 03:58:51;;;;;;;9.10;6.93;;;2.80;99.90;;;;;;4972335;28;20218;-72
2024/01/06 04:01:18;;;;;;;9.32;8.32;;;2.90;99.90;;;;;;4970543;28;20718;-71
2024/01/06 04:03:45;;;;;;;9.32;7.13;;;2.90;99.90;;;;;;4972004;28;20221;-71
2024/01/06 04:06:13;;;;;;;9.65;6.90;;;3.00;99.90;;;;;;4961843;28;20199;-73
2024/01/06 04:08:41;;;;;;;7.03;5.60;;;2.90;99.90;;;;;;4972162;28;20626;-71
2024/01/06 04:11:08;;;;;;;7.82;6.43;;;2.90;99.90;;;;;;4966271;28;20294;-72
2024/01/06 04:13:41;;;;;;;8.10;6.53;;;2.80;99.90;;;;;;4965090;28;20261;-70
2024/01/06 04:16:08;;;;;;;7.53;6.78;;;2.80;99.90;;;;;;4971534;28;20221;-72
2024/01/06 04:18:35;;;;;;;8.63;6.22;;;2.80;99.90;;;;;;4964266;28;20332;-70
2024/01/06 04:21:02;;;;;;;7.63;5.68;;;2.80;99.90;;;;;;4972661;28;20265;-69
2024/01/06 04:23:30;;;;;;;8.30;7.25;;;2.80;99.90;;;;;;4969082;28;20662;-71
2024/01/06 04:25:57;;;;;;;9.18;8.20;;;2.90;99.90;;;;;;4972842;28;20633;-72
2024/01/06 04:28:24;;;;;;;9.45;7.05;;;2.80;99.90;;;;;;4969867;28;20246;-70
2024/01/06 04:30:52;;;;;;;7.97;6.00;;;2.80;99.90;;;;;;4968240;28;20230;-73
2024/01/06 04:33:19;;;;;;;8.07;5.50;;;2.80;99.90;;;;;;4964768;28;20254;-72
2024/01/06 04:35:46;;;;;;;6.60;5.80;;;2.80;99.90;;;;;;4965121;28;20653;-72
2024/01/06 04:38:13;;;;;;;8.45;6.97;;;2.80;99.90;;;;;;4965085;28;20206;-73
2024/01/06 04:40:41;;;;;;;6.80;5.03;;;2.80;99.90;;;;;;4972235;28;20712;-72
2024/01/06 04:43:08;;;;;;;6.95;5.60;;;2.80;99.90;;;;;;4970691;28;20257;-71
2024/01/06 04:45:37;;;;;;;8.63;5.90;;;3.00;99.90;;;;;;4962948;28;20199;-71
2024/01/06 04:48:04;;;;;;;6.45;5.80;;;2.90;99.90;;;;;;4966540;28;20585;-71
2024/01/06 04:50:31;;;;;;;8.65;6.35;;;2.90;99.90;;;;;;4969691;28;20230;-71
2024/01/06 04:52:58;;;;;;;10.52;6.68;;;2.90;99.90;;;;;;4973020;28;20333;-72
2024/01/06 04:55:25;;;;;;;7.43;5.38;;;3.00;99.90;;;;;;4968929;28;20253;-70
2024/01/06 04:57:54;;;;;;;5.68;4.82;;;3.00;99.90;;;;;;4970066;28;20231;-72
2024/01/06 05:00:21;;;;;;;7.00;6.25;;;3.00;99.90;;;;;;4966238;28;20227;-71
2024/01/06 05:02:48;;;;;;;10.50;6.97;;;3.00;99.90;;;;;;4969693;28;20223;-71
2024/01/06 05:05:15;;;;;;;9.18;6.15;;;2.90;99.90;;;;;;4963853;28;20255;-73
2024/01/06 05:07:42;;;;;;;8.75;6.85;;;3.00;99.90;;;;;;4968829;28;20203;-73
2024/01/06 05:10:09;;;;;;;8.73;7.93;;;3.00;99.90;;;;;;4975840;28;20493;-71
2024/01/06 05:12:36;;;;;;;6.53;5.88;;;3.00;99.90;;;;;;4967492;28;20287;-73
2024/01/06 05:15:05;;;;;;;6.05;5.55;;;3.00;99.90;;;;;;4973208;28;20206;-71
2024/01/06 05:17:32;;;;;;;7.20;6.05;;;3.00;99.90;;;;;;4962090;28;20283;-72
2024/01/06 05:20:00;;;;;;;7.00;6.30;;;3.00;99.90;;;;;;4967974;28;20293;-72
2024/01/06 05:22:27;;;;;;;9.20;6.75;;;3.00;99.90;;;;;;4968111;28;20222;-74
2024/01/06 05:24:54;;;;;;;7.00;6.30;;;3.00;99.90;;;;;;4975835;28;20202;-72
2024/01/06 05:27:21;;;;;;;8.00;6.25;;;2.90;99.90;;;;;;4966813;28;20231;-72
2024/01/06 05:29:49;;;;;;;9.55;6.20;;;2.90;99.90;;;;;;4973237;28;20254;-69
2024/01/06 05:32:17;;;;;;;8.63;5.97;;;2.80;99.90;;;;;;4975375;28;20719;-71
2024/01/06 05:34:45;;;;;;;7.13;6.28;;;2.80;99.90;;;;;;4972853;28;20199;-70
2024/01/06 05:37:12;;;;;;;7.13;6.40;;;2.90;99.90;;;;;;4974626;28;20213;-72
2024/01/06 05:39:39;;;;;;;6.50;5.30;;;2.80;99.90;;;;;;4970381;28;20313;-71
2024/01/06 05:42:07;;;;;;;6.40;5.80;;;2.80;99.90;;;;;;4966236;28;20229;-71
2024/01/06 05:44:37;;;;;;;8.43;5.75;;;2.80;99.90;;;;;;4969844;28;20206;-72
2024/01/06 05:47:04;;;;;;;7.22;6.53;;;2.80;99.90;;;;;;4973470;28;20226;-71
2024/01/06 05:49:32;;;;;;;8.10;6.80;;;2.70;99.90;;;;;;4971301;28;20259;-73
2024/01/06 05:51:59;;;;;;;6.65;6.05;;;2.70;99.90;;;;;;4974250;28;20728;-73
2024/01/06 05:54:26;;;;;;;6.20;5.45;;;2.70;99.90;;;;;;4965653;28;20204;-70
2024/01/06 05:56:53;;;;;;;7.65;6.47;;;2.70;99.90;;;;;;4972673;28;20308;-69
2024/01/06 05:59:20;;;;;;;9.20;7.05;;;2.70;99.90;;;;;;4969705;28;20285;-72
2024/01/06 06:01:47;;;;;;;7.78;6.88;;;2.80;99.90;;;;;;4970766;28;20274;-70
2024/01/06 06:04:14;;;;;;;9.23;6.45;;;2.80;99.90;;;;;;4974219;28;20278;-72
2024/01/06 06:06:42;;;;;;;8.63;7.60;;;2.90;99.90;;;;;;4975533;28;20273;-71
2024/01/06 06:09:10;;;;;;;9.48;6.53;;;2.80;99.90;;;;;;4973576;28;20231;-71
2024/01/06 06:11:37;;;;;;;7.78;6.75;;;2.80;99.90;;;;;;4975051;28;20688;-72
2024/01/06 06:14:04;;;;;;;9.10;6.90;;;2.80;99.90;;;;;;4970844;28;20203;-73
2024/01/06 06:16:31;;;;;;;8.15;5.90;;;2.90;99.90;;;;;;4969072;28;20199;-71
2024/01/06 06:18:59;;;;;;;7.95;6.47;;;2.90;99.90;;;;;;4971009;28;20234;-71
2024/01/06 06:21:26;;;;;;;9.63;6.78;;;3.00;99.90;;;;;;4969005;28;20768;-71
2024/01/06 06:23:54;;;;;;;9.77;6.53;;;2.90;99.90;;;;;;4975209;28;20227;-70
2024/01/06 06:26:21;;;;;;;9.15;8.25;;;2.90;99.90;;;;;;4968510;28;20265;-72
2024/01/06 06:28:48;;;;;;;7.10;5.75;;;2.90;99.90;;;;;;4974575;28;20612;-70
2024/01/06 06:31:15;;;;;;;8.90;7.63;;;2.90;99.90;;;;;;4974530;28;20246;-71
2024/01/06 06:33:42;;;;;;;10.68;7.78;;;2.90;99.90;;;;;;4964046;28;20241;-71
2024/01/06 06:36:09;;;;;;;8.43;7.05;;;2.90;99.90;;;;;;4964498;28;20295;-73
2024/01/06 06:38:36;;;;;;;8.18;7.32;;;2.90;99.90;;;;;;4974231;28;20206;-71
2024/01/06 06:41:05;;;;;;;11.75;7.93;;;2.90;99.90;;;;;;4974311;28;20239;-70
2024/01/06 06:43:31;;;;;;;8.82;7.72;;;2.90;99.90;;;;;;4974376;28;20209;-69
2024/01/06 06:45:58;;;;;;;9.55;8.25;;;2.80;99.90;;;;;;4974482;28;20211;-71
2024/01/06 06:48:26;;;;;;;8.00;6.38;;;2.90;99.90;;;;;;4971834;28;20242;-69
2024/01/06 06:50:53;;;;;;;8.77;7.07;;;2.90;99.90;;;;;;4971894;28;20206;-70
2024/01/06 06:53:20;;;;;;;9.63;7.60;;;3.00;99.90;;;;;;4964926;28;20231;-71
2024/01/06 06:55:47;;;;;;;9.10;7.13;;;2.90;99.90;;;;;;4974218;28;20599;-71
2024/01/06 06:58:15;;;;;;;10.25;7.82;;;2.90;99.90;;;;;;4974310;28;20562;-69
2024/01/06 07:00:42;;;;;;;9.70;8.45;;;2.90;99.90;;;;;;4966423;28;20218;-71
2024/01/06 07:03:09;;;;;;;8.27;6.90;;;2.90;99.90;;;;;;4971909;28;20230;-72
2024/01/06 07:05:36;;;;;;;9.30;8.00;;;3.00;99.90;;;;;;4972697;28;20235;-70
2024/01/06 07:08:04;;;;;;;9.25;7.35;;;3.00;99.90;;;;;;4968224;28;20218;-72
2024/01/06 07:10:31;;;;;;;11.88;9.50;;;3.00;99.90;;;;;;4972242;28;20209;-71
2024/01/06 07:12:58;;;;;;;8.57;7.65;;;3.10;99.90;;;;;;4966245;28;20234;-70
2024/01/06 07:15:26;;;;;;;10.73;7.90;;;3.10;99.90;;;;;;4973696;28;20246;-69
2024/01/06 07:17:53;;;;;;;10.02;7.60;;;3.10;99.90;;;;;;4973433;28;20206;-72
2024/01/06 07:20:20;;;;;;;11.65;9.00;;;3.10;99.90;;;;;;4964976;28;20729;-72
2024/01/06 07:22:47;;;;;;;11.00;8.30;;;3.10;99.90;;;;;;4973348;28;20373;-72
2024/01/06 07:25:14;;;;;;;8.70;7.65;;;3.30;99.90;;;;;;4970148;28;20293;-72
2024/01/06 07:27:41;;;;;;;10.05;8.52;;;3.10;99.90;;;;;;4973691;28;20198;-71
2024/01/06 07:30:09;;;;;;;12.20;9.40;;;3.10;99.90;;;;;;4973170;28;20206;-70
2024/01/06 07:32:37;;;;;;;10.02;8.60;;;2.90;99.90;;;;;;4965445;28;20246;-75
2024/01/06 07:35:05;;;;;;;8.80;7.90;;;2.90;99.90;;;;;;4971020;28;20203;-70
2024/01/06 07:37:32;;;;;;;12.07;9.23;;;2.90;99.90;;;;;;4973055;28;20262;-73
2024/01/06 07:39:59;;;;;;;11.50;9.18;;;2.80;99.90;;;;;;4972955;28;20310;-73
2024/01/06 07:42:26;;;;;;;10.82;8.55;;;2.80;99.90;;;;;;4972665;28;20634;-69
2024/01/06 07:44:53;;;;;;;13.93;10.00;;;2.80;99.90;;;;;;4966210;28;20227;-72
2024/01/06 07:47:20;;;;;;;12.50;10.25;;;2.80;99.90;;;;;;4969505;28;20214;-70
2024/01/06 07:49:48;;;;;;;12.25;10.15;;;2.80;99.90;;;;;;4967445;28;20219;-70
2024/01/06 07:52:15;;;;;;;13.30;10.18;;;2.80;99.90;;;;;;4970483;28;20230;-73
2024/01/06 07:54:42;;;;;;;12.30;10.00;;;2.80;99.90;;;;;;4966154;28;20312;-74
2024/01/06 07:57:11;;;;;;;16.38;11.73;;;2.80;99.90;;;;;;4964729;28;20207;-73
2024/01/06 07:59:38;;;;;;;14.90;11.13;;;2.70;99.90;;;;;;4972759;28;20238;-70
2024/01/06 08:02:05;;;;;;;12.10;9.45;;;2.70;99.90;;;;;;4965607;28;20748;-70
2024/01/06 08:04:32;;;;;;;15.20;11.02;;;2.70;99.90;;;;;;4967818;28;20202;-72
2024/01/06 08:07:00;;;;;;;13.73;10.75;;;2.70;99.90;;;;;;4966692;28;20636;-72
2024/01/06 08:09:27;;;;;;;12.82;9.75;;;2.70;99.90;;;;;;4967116;28;20235;-73
2024/01/06 08:11:54;;;;;;;13.68;10.60;;;2.70;99.90;;;;;;4966756;28;20289;-72
2024/01/06 08:14:21;;;;;;;15.00;10.80;;;2.70;99.90;;;;;;4973398;28;20218;-68
2024/01/06 08:16:48;;;;;;;13.25;11.80;;;2.80;99.90;;;;;;4964746;28;20216;-69
2024/01/06 08:19:15;;;;;;;14.18;11.57;;;2.80;99.90;;;;;;4970924;28;20211;-68
2024/01/06 08:21:42;;;;;;;13.18;10.93;;;2.80;99.90;;;;;;4966673;28;20591;-70
2024/01/06 08:24:11;;;;;;;13.50;10.48;;;2.80;99.90;;;;;;4977666;28;20257;-72
2024/01/06 08:26:38;;;;;;;17.27;12.15;;;2.80;99.90;;;;;;4979431;28;20206;-73
2024/01/06 08:29:05;;;;;;;14.23;10.75;;;2.80;99.90;;;;;;4971632;28;20245;-70
2024/01/06 08:31:33;;;;;;;12.65;10.43;;;2.80;99.90;;;;;;4975910;28;20277;-72
2024/01/06 08:34:01;;;;;;;18.30;12.35;;;2.80;99.90;;;;;;4978794;28;20230;-70
2024/01/06 08:36:28;;;;;;;15.75;11.40;;;2.80;99.90;;;;;;4979474;28;20238;-72
2024/01/06 08:38:55;;;;;;;16.75;12.15;;;2.80;99.90;;;;;;4974568;28;20261;-70
2024/01/06 08:41:23;;;;;;;15.30;12.35;;;2.80;99.90;;;;;;4978859;28;20249;-69
2024/01/06 08:43:50;;;;;;;17.15;12.30;;;2.80;99.90;;;;;;4979644;28;20207;-71
2024/01/06 08:46:18;;;;;;;16.55;12.27;;;2.80;99.90;;;;;;4977067;28;20209;-72
2024/01/06 08:48:44;;;;;;;15.10;11.52;;;2.90;99.90;;;;;;4976403;28;20301;-69
2024/01/06 08:51:11;;;;;;;16.83;12.73;;;2.90;99.90;;;;;;4977957;28;20300;-71
2024/01/06 08:53:38;;;;;;;15.88;11.82;;;2.90;99.90;;;;;;4968505;28;20234;-72
2024/01/06 08:56:06;;;;;;;15.30;11.57;;;2.80;99.90;;;;;;4972968;28;20206;-72
2024/01/06 08:58:34;;;;;;;19.13;13.52;;;2.80;99.90;;;;;;4978835;28;20207;-72
2024/01/06 09:01:01;;;;;;;15.48;13.15;;;2.80;99.90;;;;;;4975395;28;20680;-72
2024/01/06 09:03:28;;;;;;;18.13;13.27;;;2.80;99.90;;;;;;4974342;28;20202;-70
2024/01/06 09:05:57;;;;;;;16.08;12.82;;;2.80;99.90;;;;;;4969428;28;20234;-70
2024/01/06 09:08:25;;;;;;;18.23;13.77;;;2.80;99.90;;;;;;4975251;28;20199;-73
2024/01/06 09:10:55;;;;;;;17.38;12.50;;;2.80;99.90;;;;;;4973529;28;20634;-69
2024/01/06 09:13:23;;;;;;;16.42;13.35;;;2.80;99.90;;;;;;4972891;28;20252;-69
2024/01/06 09:15:52;;;;;;;17.00;11.98;;;2.80;99.90;;;;;;4978900;28;20233;-71
2024/01/06 09:18:19;;;;;;;18.10;13.50;;;2.80;99.90;;;;;;4974769;28;20673;-71
2024/01/06 09:20:47;;;;;;;21.30;15.73;;;2.80;99.90;;;;;;4966534;28;20709;-69
2024/01/06 09:23:14;;;;;;;20.08;14.05;;;2.80;99.90;;;;;;4971736;28;20680;-73
2024/01/06 09:25:41;;;;;;;20.80;14.98;;;2.70;99.90;;;;;;4972190;28;20611;-73
2024/01/06 09:28:08;;;;;;;20.10;14.98;;;2.60;99.90;;;;;;4978598;28;20266;-70
2024/01/06 09:30:37;;;;;;;17.95;13.80;;;2.60;99.90;;;;;;4974945;28;20196;-72
2024/01/06 09:33:05;;;;;;;20.83;15.05;;;2.60;99.90;;;;;;4973668;28;20664;-72
2024/01/06 09:35:32;;;;;;;18.13;13.80;;;2.70;99.90;;;;;;4966213;28;20200;-71
2024/01/06 09:37:59;;;;;;;18.38;13.52;;;2.70;99.90;;;;;;4975881;28;20613;-69
2024/01/06 09:40:26;;;;;;;18.08;13.35;;;2.70;99.90;;;;;;4967634;28;20222;-70
2024/01/06 09:42:54;;;;;;;18.70;13.52;;;2.60;99.90;;;;;;4972530;28;20680;-71
2024/01/06 09:45:21;;;;;;;17.65;13.85;;;2.60;99.90;;;;;;4975947;28;20301;-71
2024/01/06 09:47:51;;;;;;;18.75;14.30;;;2.60;99.90;;;;;;4976482;28;20633;-70
2024/01/06 09:50:20;;;;;;;19.75;15.07;;;2.50;99.90;;;;;;4972224;28;20203;-70
2024/01/06 09:52:53;;;;;;;19.98;14.55;;;2.50;99.90;;;;;;4964137;28;20231;-68
2024/01/06 09:55:25;;;;;;;16.05;11.85;;;2.40;99.90;;;;;;4973413;28;20210;-69
2024/01/06 09:57:53;;;;;;;16.77;13.77;;;2.50;99.90;;;;;;4970512;28;20214;-70
2024/01/06 10:00:21;;;;;;;20.67;15.93;;;2.50;99.90;;;;;;4975604;28;20203;-69
2024/01/06 10:02:48;;;;;;;33.92;18.15;;;2.80;99.90;;;;;;4974909;28;20227;-71
2024/01/06 10:05:17;;;;;;;20.08;16.30;;;2.90;99.90;;;;;;4968030;28;20234;-72
2024/01/06 10:07:46;;;;;;;20.00;14.35;;;3.30;99.90;;;;;;4974398;28;20262;-70
2024/01/06 10:10:15;;;;;;;16.77;14.68;;;3.60;99.90;;;;;;4974218;28;20261;-70
2024/01/06 10:12:43;;;;;;;19.23;14.15;;;3.60;99.90;;;;;;4973465;28;20278;-72
2024/01/06 10:15:12;;;;;;;16.70;12.63;;;3.70;99.90;;;;;;4967027;28;20262;-68
2024/01/06 10:17:39;;;;;;;16.83;13.27;;;3.80;99.90;;;;;;4971293;28;20569;-70
2024/01/06 10:20:09;;;;;;;17.00;14.27;;;3.80;99.90;;;;;;4971559;28;20265;-68
2024/01/06 10:22:37;;;;;;;18.85;12.57;;;3.90;99.90;;;;;;4966922;28;20262;-69
2024/01/06 10:25:09;;;;;;;16.17;11.63;;;3.70;99.90;;;;;;4966018;28;20205;-66
2024/01/06 10:27:36;;;;;;;14.60;13.07;;;3.50;99.90;;;;;;4968538;28;20302;-69
2024/01/06 10:30:03;;;;;;;15.98;12.32;;;3.50;99.90;;;;;;4971575;28;20563;-72
2024/01/06 10:32:32;;;;;;;20.10;16.42;;;3.50;99.90;;;;;;4963784;28;20439;-72
2024/01/06 10:35:01;;;;;;;15.52;13.93;;;3.40;99.90;;;;;;4975146;28;20590;-70
2024/01/06 10:37:29;;;;;;;14.75;11.55;;;3.30;99.90;;;;;;4969021;28;20254;-69
2024/01/06 10:40:19;;;;;;;14.85;12.25;;;3.20;99.90;;;;;;4966379;28;20318;-72
2024/01/06 10:42:46;;;;;;;12.68;10.95;;;3.40;99.90;;;;;;4971188;28;20299;-71
2024/01/06 10:45:14;;;;;;;15.65;13.05;;;3.40;99.90;;;;;;4974149;28;20257;-72
2024/01/06 10:47:43;;;;;;;14.35;11.23;;;3.30;99.90;;;;;;4968341;28;20265;-72
2024/01/06 10:50:11;;;;;;;15.63;12.80;;;3.40;99.90;;;;;;4973174;28;20214;-72
2024/01/06 10:52:39;;;;;;;15.90;12.00;;;3.60;99.90;;;;;;4970910;28;20322;-70
2024/01/06 10:55:07;;;;;;;16.88;13.07;;;3.40;99.90;;;;;;4972188;28;20203;-73
2024/01/06 10:57:37;;;;;;;17.73;12.93;;;3.40;99.90;;;;;;4966384;28;20206;-73
2024/01/06 11:00:06;;;;;;;20.88;15.85;;;3.30;99.90;;;;;;4972558;28;20242;-70
2024/01/06 11:02:33;;;;;;;19.33;15.50;;;3.10;99.90;;;;;;4973513;28;20230;-70
2024/01/06 11:05:01;;;;;;;26.85;15.75;;;3.00;99.90;;;;;;4972327;28;20250;-72
2024/01/06 11:07:29;;;;;;;27.80;16.65;;;2.90;99.90;;;;;;4973305;28;20203;-68
2024/01/06 11:09:58;;;;;;;18.30;13.75;;;2.80;99.90;;;;;;4972899;28;20381;-70
2024/01/06 11:12:26;;;;;;;19.33;14.73;;;2.80;99.90;;;;;;4973352;28;20318;-72
2024/01/06 11:14:55;;;;;;;19.13;14.68;;;2.80;99.90;;;;;;4973923;28;20306;-73
2024/01/06 11:17:50;;;;;;;18.58;13.73;;;2.70;99.90;;;;;;4966751;28;20246;-71
2024/01/06 11:20:17;;;;;;;21.95;14.27;;;2.60;99.90;;;;;;4964467;28;20293;-72
2024/01/06 11:22:45;;;;;;;18.33;14.88;;;2.50;99.90;;;;;;4969372;28;20231;-70
2024/01/06 11:25:16;;;;;;;27.02;15.80;;;2.60;99.90;;;;;;4970060;28;20249;-68
2024/01/06 11:27:45;;;;;;;20.33;15.07;;;2.60;99.90;;;;;;4958977;28;20657;-69
2024/01/06 11:30:23;;;;;;;21.77;14.43;;;2.60;99.90;;;;;;4964920;28;20214;-72
2024/01/06 11:32:52;;;;;;;17.48;13.32;;;2.60;99.90;;;;;;4967557;28;20306;-69
2024/01/06 11:35:20;;;;;;;21.80;16.17;;;2.60;99.90;;;;;;4971337;28;20213;-70
2024/01/06 11:37:56;;;;;;;20.58;15.35;;;2.70;99.90;;;;;;4971070;28;20243;-71
2024/01/06 11:40:26;;;;;;;23.73;16.55;;;2.60;99.90;;;;;;4968936;28;20211;-71
2024/01/06 11:43:02;;;;;;;24.38;18.45;;;2.70;99.90;;;;;;4963617;28;20238;-74
2024/01/06 11:45:32;;;;;;;23.33;15.10;;;2.80;99.90;;;;;;4971699;28;20614;-69
2024/01/06 11:48:02;;;;;;;22.75;15.77;;;2.80;99.90;;;;;;4967208;28;20210;-69
2024/01/06 11:50:30;;;;;;;22.30;17.20;;;2.80;99.90;;;;;;4972187;28;20615;-71
2024/01/06 11:52:57;;;;;;;24.42;16.02;;;2.80;99.90;;;;;;4967041;28;20249;-70
2024/01/06 11:55:27;;;;;;;24.20;16.05;;;2.90;99.90;;;;;;4965882;28;20238;-72
2024/01/06 11:57:56;;;;;;;22.25;15.70;;;2.90;99.90;;;;;;4966139;28;20369;-71
2024/01/06 12:00:23;;;;;;;24.75;17.50;;;2.70;99.90;;;;;;4970601;28;20254;-71
2024/01/06 12:02:57;;;;;;;27.00;18.95;;;2.70;99.90;;;;;;4967427;28;20226;-72
2024/01/06 12:05:24;;;;;;;24.42;16.50;;;2.60;99.90;;;;;;4971130;28;20242;-70
2024/01/06 12:07:56;;;;;;;29.75;18.35;;;2.60;99.90;;;;;;4969274;28;20649;-71
2024/01/06 12:10:24;;;;;;;26.45;16.42;;;2.70;99.90;;;;;;4971582;28;20229;-71
2024/01/06 12:12:59;;;;;;;25.75;18.92;;;2.60;99.90;;;;;;4962853;28;20278;-72
2024/01/06 12:15:26;;;;;;;27.60;18.10;;;2.50;99.90;;;;;;4969209;28;20214;-70
2024/01/06 12:17:54;;;;;;;26.20;18.15;;;2.50;99.90;;;;;;4962974;28;20206;-72
2024/01/06 12:20:23;;;;;;;24.05;17.45;;;2.50;99.90;;;;;;4969738;28;20234;-70
2024/01/06 12:22:50;;;;;;;28.67;20.90;;;2.50;99.90;;;;;;4971336;28;20227;-72
2024/01/06 12:25:17;;;;;;;27.85;19.13;;;2.50;99.90;;;;;;4972074;28;20728;-71
2024/01/06 12:27:44;;;;;;;24.50;18.98;;;2.60;99.90;;;;;;4965357;28;20235;-72
2024/01/06 12:30:18;;;;;;;28.73;20.65;;;2.60;99.90;;;;;;4963425;28;20357;-72
2024/01/06 12:32:48;;;;;;;28.80;20.45;;;2.50;99.90;;;;;;4967125;28;20223;-73
2024/01/06 12:35:17;;;;;;;22.80;16.88;;;2.60;99.90;;;;;;4968972;28;20210;-72
2024/01/06 12:37:45;;;;;;;25.67;17.20;;;2.60;99.90;;;;;;4970001;28;20199;-71
2024/01/06 12:40:14;;;;;;;23.85;17.15;;;2.60;99.90;;;;;;4970681;28;20290;-73
2024/01/06 12:42:42;;;;;;;25.70;19.33;;;2.60;99.90;;;;;;4971591;28;20230;-72
2024/01/06 12:45:10;;;;;;;26.75;18.95;;;2.50;99.90;;;;;;4971706;28;20290;-73
2024/01/06 12:47:38;;;;;;;26.58;17.30;;;2.50;99.90;;;;;;4958947;28;20231;-70
2024/01/06 12:50:07;;;;;;;23.52;17.58;;;2.50;99.90;;;;;;4969772;28;20543;-73
2024/01/06 12:52:35;;;;;;;24.30;16.92;;;2.40;99.90;;;;;;4971816;28;20219;-72